createdAt,value
2023-04-16T00:00:42.688Z,8.68
2023-04-16T00:02:44.296Z,8.98
2023-04-16T00:04:45.942Z,10.30
2023-04-16T00:06:47.402Z,9.70
2023-04-16T00:08:49.227Z,11.50
2023-04-16T00:10:52.401Z,9.40
2023-04-16T00:12:53.827Z,8.60
2023-04-16T00:14:55.366Z,9.57
2023-04-16T00:16:57.072Z,8.95
2023-04-16T00:18:58.540Z,8.45
2023-04-16T00:21:00.075Z,8.98
2023-04-16T00:23:01.579Z,9.75
2023-04-16T00:25:03.228Z,10.00
2023-04-16T00:27:04.686Z,11.32
2023-04-16T00:29:06.338Z,11.27
2023-04-16T00:31:07.872Z,8.80
2023-04-16T00:33:09.312Z,9.70
2023-04-16T00:35:10.859Z,8.55
2023-04-16T00:37:12.257Z,9.18
2023-04-16T00:39:13.700Z,9.70
2023-04-16T00:41:15.313Z,11.95
2023-04-16T00:43:23.153Z,10.82
2023-04-16T00:45:24.794Z,10.77
2023-04-16T00:47:26.386Z,11.77
2023-04-16T00:49:28.447Z,26.90
2023-04-16T00:51:31.039Z,17.48
2023-04-16T00:53:33.161Z,9.63
2023-04-16T00:55:34.708Z,13.75
2023-04-16T00:57:36.127Z,12.77
2023-04-16T00:59:37.719Z,8.60
2023-04-16T01:01:39.361Z,11.90
2023-04-16T01:03:44.800Z,8.60
2023-04-16T01:05:46.671Z,9.45
2023-04-16T01:07:48.069Z,10.50
2023-04-16T01:09:49.618Z,8.52
2023-04-16T01:11:51.107Z,7.68
2023-04-16T01:13:52.520Z,8.18
2023-04-16T01:15:54.143Z,8.73
2023-04-16T01:17:55.683Z,10.32
2023-04-16T01:20:00.542Z,10.13
2023-04-16T01:22:02.906Z,10.52
2023-04-16T01:24:05.125Z,9.30
2023-04-16T01:26:06.531Z,9.23
2023-04-16T01:28:08.344Z,10.07
2023-04-16T01:30:10.214Z,8.75
2023-04-16T01:32:11.668Z,12.27
2023-04-16T01:34:13.272Z,9.68
2023-04-16T01:36:14.767Z,12.63
2023-04-16T01:38:16.443Z,11.40
2023-04-16T01:40:18.983Z,9.15
2023-04-16T01:42:20.640Z,11.02
2023-04-16T01:44:22.054Z,13.45
2023-04-16T01:46:34.250Z,13.07
2023-04-16T01:48:36.066Z,10.35
2023-04-16T01:50:37.506Z,10.63
2023-04-16T01:52:39.027Z,12.32
2023-04-16T01:54:40.566Z,11.52
2023-04-16T01:56:41.970Z,11.75
2023-04-16T01:58:43.478Z,11.95
2023-04-16T02:00:45.145Z,11.80
2023-04-16T02:02:47.029Z,12.20
2023-04-16T02:04:48.562Z,14.10
2023-04-16T02:06:50.242Z,12.95
2023-04-16T02:08:51.627Z,15.90
2023-04-16T02:10:53.288Z,12.73
2023-04-16T02:12:54.851Z,11.43
2023-04-16T02:14:56.262Z,12.82
2023-04-16T02:16:57.906Z,14.63
2023-04-16T02:18:59.401Z,14.02
2023-04-16T02:21:00.818Z,13.55
2023-04-16T02:23:02.295Z,11.98
2023-04-16T02:25:03.952Z,16.48
2023-04-16T02:27:05.356Z,16.55
2023-04-16T02:29:07.131Z,19.48
2023-04-16T02:31:08.863Z,22.70
2023-04-16T02:33:11.408Z,26.42
2023-04-16T02:35:12.998Z,25.05
2023-04-16T02:37:14.631Z,15.02
2023-04-16T02:39:16.023Z,28.90
2023-04-16T02:41:17.674Z,19.23
2023-04-16T02:43:19.252Z,16.88
2023-04-16T02:45:21.929Z,15.23
2023-04-16T02:47:23.526Z,18.00
2023-04-16T02:49:25.040Z,15.95
2023-04-16T02:51:26.472Z,19.58
2023-04-16T02:53:27.953Z,19.30
2023-04-16T02:55:29.493Z,16.35
2023-04-16T02:57:30.984Z,17.05
2023-04-16T02:59:32.495Z,16.95
2023-04-16T03:01:34.150Z,17.95
2023-04-16T03:03:35.590Z,19.45
2023-04-16T03:05:39.054Z,16.77
2023-04-16T03:07:41.855Z,17.85
2023-04-16T03:09:43.256Z,18.13
2023-04-16T03:11:44.833Z,18.08
2023-04-16T03:13:46.308Z,18.17
2023-04-16T03:15:49.203Z,19.38
2023-04-16T03:17:50.977Z,16.90
2023-04-16T03:19:52.532Z,19.27
2023-04-16T03:21:53.955Z,20.33
2023-04-16T03:23:55.589Z,18.67
2023-04-16T03:25:57.172Z,18.92
2023-04-16T03:27:58.565Z,20.17
2023-04-16T03:30:00.566Z,20.08
2023-04-16T03:32:02.007Z,19.65
2023-04-16T03:34:03.407Z,18.60
2023-04-16T03:36:05.141Z,17.98
2023-04-16T03:38:06.555Z,19.67
2023-04-16T03:40:08.421Z,20.15
2023-04-16T03:42:09.979Z,16.83
2023-04-16T03:44:11.446Z,18.52
2023-04-16T03:46:12.889Z,21.38
2023-04-16T03:48:15.284Z,19.17
2023-04-16T03:50:16.774Z,22.58
2023-04-16T03:52:18.183Z,23.58
2023-04-16T03:54:22.064Z,26.30
2023-04-16T03:56:24.480Z,28.73
2023-04-16T03:58:25.890Z,25.15
2023-04-16T04:00:27.440Z,26.48
2023-04-16T04:02:29.110Z,24.60
2023-04-16T04:04:30.750Z,21.40
2023-04-16T04:06:32.434Z,24.95
2023-04-16T04:08:34.027Z,17.77
2023-04-16T04:10:36.246Z,22.55
2023-04-16T04:12:37.840Z,29.65
2023-04-16T04:14:39.539Z,27.77
2023-04-16T04:16:41.431Z,26.30
2023-04-16T04:18:44.452Z,31.48
2023-04-16T04:20:46.219Z,25.13
2023-04-16T04:22:48.233Z,22.15
2023-04-16T04:24:49.898Z,24.45
2023-04-16T04:26:51.478Z,25.90
2023-04-16T04:28:52.877Z,22.90
2023-04-16T04:30:54.430Z,29.05
2023-04-16T04:32:56.036Z,24.13
2023-04-16T04:34:58.772Z,26.25
2023-04-16T04:37:00.341Z,18.35
2023-04-16T04:39:02.004Z,19.48
2023-04-16T04:41:03.422Z,20.70
2023-04-16T04:43:04.953Z,16.92
2023-04-16T04:45:07.058Z,18.55
2023-04-16T04:47:08.451Z,19.88
2023-04-16T04:49:10.140Z,18.67
2023-04-16T04:51:11.977Z,18.95
2023-04-16T04:53:13.383Z,15.75
2023-04-16T04:55:15.006Z,15.38
2023-04-16T04:57:16.493Z,17.95
2023-04-16T04:59:17.983Z,21.52
2023-04-16T05:01:19.552Z,16.38
2023-04-16T05:03:22.003Z,22.38
2023-04-16T05:05:23.563Z,20.13
2023-04-16T05:07:25.090Z,18.08
2023-04-16T05:09:26.772Z,16.60
2023-04-16T05:11:28.233Z,24.17
2023-04-16T05:13:29.743Z,20.85
2023-04-16T05:15:31.322Z,22.05
2023-04-16T05:17:32.769Z,20.33
2023-04-16T05:19:34.216Z,22.80
2023-04-16T05:21:35.775Z,19.73
2023-04-16T05:23:37.195Z,22.27
2023-04-16T05:25:38.605Z,20.10
2023-04-16T05:27:40.665Z,19.45
2023-04-16T05:29:42.065Z,19.92
2023-04-16T05:31:43.781Z,17.58
2023-04-16T05:33:45.469Z,13.73
2023-04-16T05:35:46.867Z,19.45
2023-04-16T05:37:48.425Z,25.05
2023-04-16T05:39:49.911Z,15.30
2023-04-16T05:41:51.326Z,15.75
2023-04-16T05:43:52.915Z,18.95
2023-04-16T05:45:54.545Z,23.40
2023-04-16T05:47:56.062Z,18.75
2023-04-16T05:49:57.722Z,18.02
2023-04-16T05:51:59.319Z,17.98
2023-04-16T05:54:00.772Z,16.55
2023-04-16T05:56:02.341Z,15.90
2023-04-16T05:58:03.827Z,16.10
2023-04-16T06:00:05.919Z,20.67
2023-04-16T06:02:07.769Z,18.10
2023-04-16T06:04:09.534Z,16.23
2023-04-16T06:06:11.050Z,19.52
2023-04-16T06:08:12.574Z,19.98
2023-04-16T06:10:14.060Z,16.73
2023-04-16T06:12:15.505Z,17.42
2023-04-16T06:14:17.139Z,19.92
2023-04-16T06:16:18.659Z,19.83
2023-04-16T06:18:20.156Z,17.40
2023-04-16T06:20:21.735Z,19.55
2023-04-16T06:22:24.156Z,20.48
2023-04-16T06:24:25.628Z,22.75
2023-04-16T06:26:27.154Z,15.52
2023-04-16T06:28:28.722Z,16.90
2023-04-16T06:30:30.158Z,19.42
2023-04-16T06:32:31.701Z,15.82
2023-04-16T06:34:33.196Z,18.08
2023-04-16T06:36:34.625Z,18.88
2023-04-16T06:38:37.481Z,20.02
2023-04-16T06:40:39.145Z,19.48
2023-04-16T06:42:42.327Z,22.13
2023-04-16T06:44:45.110Z,23.95
2023-04-16T06:46:46.624Z,21.80
2023-04-16T06:48:48.047Z,23.00
2023-04-16T06:50:49.706Z,21.98
2023-04-16T06:52:51.358Z,21.02
2023-04-16T06:54:52.752Z,21.70
2023-04-16T06:56:54.304Z,26.35
2023-04-16T06:58:55.788Z,23.40
2023-04-16T07:00:57.306Z,21.02
2023-04-16T07:03:01.521Z,23.08
2023-04-16T07:05:03.427Z,20.75
2023-04-16T07:07:04.825Z,21.35
2023-04-16T07:09:06.372Z,26.98
2023-04-16T07:11:07.907Z,24.38
2023-04-16T07:13:09.311Z,23.35
2023-04-16T07:15:11.238Z,19.92
2023-04-16T07:17:12.704Z,20.40
2023-04-16T07:19:14.118Z,21.35
2023-04-16T07:21:15.690Z,18.90
2023-04-16T07:23:17.350Z,17.88
2023-04-16T07:25:18.816Z,18.98
2023-04-16T07:27:20.594Z,19.83
2023-04-16T07:29:21.981Z,23.38
2023-04-16T07:31:23.650Z,19.48
2023-04-16T07:33:25.213Z,21.60
2023-04-16T07:35:26.991Z,21.60
2023-04-16T07:37:28.415Z,21.20
2023-04-16T07:39:30.026Z,22.48
2023-04-16T07:41:31.595Z,19.42
2023-04-16T07:43:33.034Z,21.67
2023-04-16T07:45:34.603Z,24.15
2023-04-16T07:47:36.115Z,22.17
2023-04-16T07:49:37.660Z,20.73
2023-04-16T07:51:39.051Z,23.48
2023-04-16T07:53:42.379Z,19.67
2023-04-16T07:55:43.805Z,22.13
2023-04-16T07:57:45.311Z,19.63
2023-04-16T07:59:46.795Z,20.15
2023-04-16T08:01:48.425Z,22.45
2023-04-16T08:03:50.109Z,25.55
2023-04-16T08:05:51.787Z,24.35
2023-04-16T08:07:53.213Z,20.27
2023-04-16T08:09:55.035Z,16.60
2023-04-16T08:11:56.464Z,15.60
2023-04-16T08:13:57.865Z,14.35
2023-04-16T08:15:59.420Z,19.00
2023-04-16T08:18:00.904Z,13.88
2023-04-16T08:20:02.406Z,13.65
2023-04-16T08:22:04.034Z,16.70
2023-04-16T08:24:05.621Z,17.55
2023-04-16T08:26:07.018Z,15.00
2023-04-16T08:28:08.592Z,13.90
2023-04-16T08:30:10.193Z,18.33
2023-04-16T08:32:11.629Z,19.35
2023-04-16T08:34:13.168Z,14.32
2023-04-16T08:36:14.942Z,14.15
2023-04-16T08:38:16.336Z,13.43
2023-04-16T08:40:17.734Z,16.02
2023-04-16T08:42:27.174Z,15.45
2023-04-16T08:44:33.719Z,16.45
2023-04-16T08:46:37.945Z,17.48
2023-04-16T08:48:42.133Z,16.85
2023-04-16T08:50:44.422Z,17.25
2023-04-16T08:52:50.742Z,15.75
2023-04-16T08:55:11.328Z,17.35
2023-04-16T08:57:19.047Z,17.80
2023-04-16T08:59:21.652Z,17.05
2023-04-16T09:01:25.353Z,16.55
2023-04-16T09:05:30.562Z,18.33
2023-04-16T09:07:33.384Z,17.73
2023-04-16T09:09:35.279Z,18.55
2023-04-16T09:11:37.907Z,23.13
2023-04-16T09:13:39.464Z,21.17
2023-04-16T09:15:41.245Z,18.13
2023-04-16T09:17:42.927Z,23.88
2023-04-16T09:19:45.499Z,24.33
2023-04-16T09:21:48.076Z,25.23
2023-04-16T09:23:49.697Z,22.50
2023-04-16T09:25:51.256Z,20.95
2023-04-16T09:27:52.668Z,45.90
2023-04-16T09:29:54.188Z,30.48
2023-04-16T09:32:03.565Z,19.27
2023-04-16T09:34:05.704Z,17.92
2023-04-16T09:36:07.406Z,19.38
2023-04-16T09:38:09.516Z,19.88
2023-04-16T09:40:11.281Z,25.30
2023-04-16T09:42:14.231Z,18.75
2023-04-16T09:44:15.734Z,16.73
2023-04-16T09:46:17.208Z,18.73
2023-04-16T09:48:36.608Z,16.45
2023-04-16T09:50:37.996Z,19.90
2023-04-16T09:52:39.500Z,19.17
2023-04-16T09:54:51.289Z,15.38
2023-04-16T09:56:56.980Z,15.60
2023-04-16T09:59:00.367Z,18.23
2023-04-16T10:01:03.395Z,43.33
2023-04-16T10:03:05.873Z,57.03
2023-04-16T10:05:07.717Z,29.05
2023-04-16T10:07:09.295Z,16.23
2023-04-16T10:09:11.023Z,27.73
2023-04-16T10:11:12.937Z,58.67
2023-04-16T10:13:14.568Z,22.90
2023-04-16T10:15:16.185Z,18.98
2023-04-16T10:17:17.642Z,19.70
2023-04-16T10:19:19.535Z,19.92
2023-04-16T10:21:21.311Z,18.98
2023-04-16T10:23:23.037Z,19.30
2023-04-16T10:25:25.115Z,15.70
2023-04-16T10:27:27.123Z,14.55
2023-04-16T10:29:30.267Z,18.27
2023-04-16T10:31:32.189Z,16.38
2023-04-16T10:33:35.538Z,16.90
2023-04-16T10:35:39.882Z,15.93
2023-04-16T10:37:41.375Z,13.68
2023-04-16T10:39:43.068Z,13.88
2023-04-16T10:41:45.284Z,15.93
2023-04-16T10:43:48.525Z,15.00
2023-04-16T10:45:50.032Z,19.85
2023-04-16T10:47:51.500Z,14.68
2023-04-16T10:49:53.296Z,14.90
2023-04-16T10:51:56.752Z,15.30
2023-04-16T10:54:10.322Z,15.45
2023-04-16T10:56:12.035Z,15.40
2023-04-16T10:58:30.180Z,22.38
2023-04-16T11:00:31.584Z,23.20
2023-04-16T11:02:33.329Z,15.20
2023-04-16T11:04:39.709Z,13.02
2023-04-16T11:06:43.813Z,12.05
2023-04-16T11:08:53.989Z,15.07
2023-04-16T11:10:58.615Z,34.30
2023-04-16T11:13:00.323Z,22.05
2023-04-16T11:15:06.126Z,39.67
2023-04-16T11:17:08.180Z,16.65
2023-04-16T11:19:16.201Z,13.40
2023-04-16T11:21:18.026Z,12.55
2023-04-16T11:23:19.612Z,13.32
2023-04-16T11:25:29.436Z,15.05
2023-04-16T11:27:31.901Z,12.70
2023-04-16T11:29:33.645Z,15.27
2023-04-16T11:31:35.141Z,12.65
2023-04-16T11:33:37.885Z,13.93
2023-04-16T11:35:40.252Z,13.20
2023-04-16T11:37:42.073Z,12.23
2023-04-16T11:39:51.927Z,13.88
2023-04-16T11:41:53.861Z,14.65
2023-04-16T11:43:55.262Z,15.45
2023-04-16T11:45:57.398Z,19.58
2023-04-16T11:47:58.975Z,13.80
2023-04-16T11:50:19.630Z,12.07
2023-04-16T11:52:32.270Z,21.80
2023-04-16T11:54:33.768Z,12.63
2023-04-16T11:56:36.390Z,16.17
2023-04-16T11:58:37.799Z,17.15
2023-04-16T12:00:44.624Z,11.73
2023-04-16T12:02:50.407Z,14.60
2023-04-16T12:04:52.072Z,13.50
2023-04-16T12:07:06.739Z,15.80
2023-04-16T12:09:25.888Z,17.23
2023-04-16T12:11:47.706Z,14.93
2023-04-16T12:14:11.750Z,17.35
2023-04-16T12:16:19.881Z,106.35
2023-04-16T12:18:24.775Z,32.60
2023-04-16T12:20:26.330Z,15.50
2023-04-16T12:22:31.785Z,18.23
2023-04-16T12:24:35.551Z,24.25
2023-04-16T12:26:44.506Z,14.50
2023-04-16T12:28:45.933Z,15.55
2023-04-16T12:30:50.361Z,15.15
2023-04-16T12:33:14.059Z,17.10
2023-04-16T12:35:31.115Z,16.80
2023-04-16T12:37:32.591Z,19.30
2023-04-16T12:39:34.069Z,22.00
2023-04-16T12:41:37.225Z,19.88
2023-04-16T12:43:38.916Z,21.65
2023-04-16T12:45:40.619Z,16.90
2023-04-16T12:47:42.004Z,17.60
2023-04-16T12:49:43.483Z,15.95
2023-04-16T12:51:44.955Z,19.70
2023-04-16T12:53:46.388Z,17.95
2023-04-16T12:55:48.315Z,20.15
2023-04-16T12:57:50.922Z,24.83
2023-04-16T12:59:52.350Z,22.52
2023-04-16T13:01:53.904Z,65.82
2023-04-16T13:03:55.894Z,29.27
2023-04-16T13:05:57.615Z,23.10
2023-04-16T13:07:59.116Z,27.27
2023-04-16T13:10:01.046Z,24.05
2023-04-16T13:12:02.451Z,21.15
2023-04-16T13:14:03.859Z,23.05
2023-04-16T13:16:05.504Z,27.58
2023-04-16T13:18:06.988Z,27.58
2023-04-16T13:20:08.958Z,26.58
2023-04-16T13:22:10.539Z,22.27
2023-04-16T13:24:12.108Z,25.05
2023-04-16T13:26:13.518Z,29.60
2023-04-16T13:28:14.902Z,25.23
2023-04-16T13:30:16.454Z,21.35
2023-04-16T13:32:17.927Z,190.85
2023-04-16T13:34:19.716Z,21.60
2023-04-16T13:36:21.153Z,22.83
2023-04-16T13:38:22.567Z,32.40
2023-04-16T13:40:24.078Z,32.50
2023-04-16T13:42:25.529Z,44.78
2023-04-16T13:44:26.971Z,34.10
2023-04-16T13:46:28.525Z,31.52
2023-04-16T13:48:30.040Z,24.27
2023-04-16T13:50:31.456Z,48.42
2023-04-16T13:52:33.072Z,26.90
2023-04-16T13:54:34.487Z,21.23
2023-04-16T13:56:36.018Z,35.50
2023-04-16T13:58:37.878Z,40.30
2023-04-16T14:00:39.376Z,21.70
2023-04-16T14:02:42.348Z,23.15
2023-04-16T14:04:43.964Z,22.63
2023-04-16T14:06:45.354Z,23.17
2023-04-16T14:08:47.025Z,19.45
2023-04-16T14:10:48.668Z,29.65
2023-04-16T14:12:50.279Z,20.80
2023-04-16T14:14:52.048Z,19.38
2023-04-16T14:16:58.784Z,23.05
2023-04-16T14:19:00.297Z,28.85
2023-04-16T14:21:01.785Z,33.55
2023-04-16T14:23:03.196Z,28.45
2023-04-16T14:25:05.116Z,26.90
2023-04-16T14:27:06.528Z,30.00
2023-04-16T14:29:08.122Z,34.50
2023-04-16T14:31:09.765Z,28.48
2023-04-16T14:33:11.483Z,30.10
2023-04-16T14:35:13.040Z,28.63
2023-04-16T14:37:16.038Z,27.92
2023-04-16T14:39:17.489Z,23.83
2023-04-16T14:41:19.153Z,20.90
2023-04-16T14:43:20.602Z,22.60
2023-04-16T14:45:22.091Z,38.58
2023-04-16T14:47:23.788Z,34.22
2023-04-16T14:49:25.491Z,29.83
2023-04-16T14:51:26.995Z,23.55
2023-04-16T14:53:28.678Z,41.25
2023-04-16T14:55:30.143Z,23.88
2023-04-16T14:57:31.540Z,25.15
2023-04-16T14:59:33.143Z,19.95
2023-04-16T15:01:34.714Z,24.13
2023-04-16T15:03:36.466Z,22.10
2023-04-16T15:05:38.030Z,19.60
2023-04-16T15:07:39.652Z,23.90
2023-04-16T15:09:41.067Z,23.88
2023-04-16T15:11:42.554Z,28.67
2023-04-16T15:13:43.961Z,26.10
2023-04-16T15:15:45.440Z,22.65
2023-04-16T15:17:47.240Z,26.13
2023-04-16T15:19:48.770Z,39.95
2023-04-16T15:21:50.217Z,28.95
2023-04-16T15:23:51.847Z,43.50
2023-04-16T15:25:53.247Z,75.07
2023-04-16T15:27:56.834Z,109.68
2023-04-16T15:29:58.376Z,88.82
2023-04-16T15:31:59.834Z,57.35
2023-04-16T15:34:01.489Z,29.38
2023-04-16T15:36:03.213Z,22.67
2023-04-16T15:38:04.668Z,31.17
2023-04-16T15:40:07.126Z,45.03
2023-04-16T15:42:08.746Z,23.67
2023-04-16T15:44:10.552Z,34.45
2023-04-16T15:46:12.059Z,26.73
2023-04-16T15:48:13.577Z,29.80
2023-04-16T15:50:15.120Z,56.75
2023-04-16T15:52:16.578Z,38.45
2023-04-16T15:54:18.193Z,36.90
2023-04-16T15:56:19.771Z,37.33
2023-04-16T15:58:21.220Z,33.95
2023-04-16T16:00:22.731Z,36.33
2023-04-16T16:02:24.564Z,36.60
2023-04-16T16:04:26.667Z,25.45
2023-04-16T16:06:28.288Z,28.77
2023-04-16T16:08:29.885Z,43.50
2023-04-16T16:10:31.370Z,26.65
2023-04-16T16:12:32.885Z,29.38
2023-04-16T16:14:34.924Z,26.90
2023-04-16T16:16:36.537Z,30.02
2023-04-16T16:18:38.242Z,29.23
2023-04-16T16:20:39.657Z,26.23
2023-04-16T16:22:41.038Z,25.10
2023-04-16T16:24:42.957Z,22.23
2023-04-16T16:26:44.386Z,27.15
2023-04-16T16:28:45.909Z,27.40
2023-04-16T16:30:47.772Z,21.45
2023-04-16T16:32:49.240Z,105.32
2023-04-16T16:34:50.846Z,38.15
2023-04-16T16:36:52.296Z,40.40
2023-04-16T16:38:53.697Z,30.02
2023-04-16T16:40:55.169Z,35.65
2023-04-16T16:42:56.812Z,21.77
2023-04-16T16:44:58.312Z,30.95
2023-04-16T16:46:59.825Z,21.85
2023-04-16T16:49:01.428Z,23.42
2023-04-16T16:51:02.887Z,21.13
2023-04-16T16:53:04.403Z,24.23
2023-04-16T16:55:06.610Z,25.67
2023-04-16T16:57:08.140Z,31.77
2023-04-16T16:59:10.077Z,22.23
2023-04-16T17:01:12.137Z,28.88
2023-04-16T17:03:13.752Z,27.27
2023-04-16T17:05:15.645Z,26.23
2023-04-16T17:07:17.184Z,24.15
2023-04-16T17:09:18.613Z,20.92
2023-04-16T17:11:20.035Z,22.13
2023-04-16T17:13:21.496Z,26.77
2023-04-16T17:15:23.059Z,31.88
2023-04-16T17:17:24.639Z,25.75
2023-04-16T17:19:26.162Z,29.88
2023-04-16T17:21:27.574Z,27.20
2023-04-16T17:23:28.983Z,34.38
2023-04-16T17:25:30.575Z,30.02
2023-04-16T17:27:31.979Z,32.08
2023-04-16T17:29:33.535Z,30.80
2023-04-16T17:31:36.679Z,33.30
2023-04-16T17:33:38.202Z,31.05
2023-04-16T17:35:40.284Z,201.13
2023-04-16T17:37:41.798Z,371.27
2023-04-16T17:39:43.212Z,94.13
2023-04-16T17:41:45.031Z,45.33
2023-04-16T17:43:50.232Z,44.75
2023-04-16T17:45:51.638Z,44.70
2023-04-16T17:47:54.295Z,36.22
2023-04-16T17:49:55.923Z,28.10
2023-04-16T17:51:57.436Z,25.60
2023-04-16T17:53:59.004Z,28.65
2023-04-16T17:56:00.610Z,43.22
2023-04-16T17:58:02.026Z,48.63
2023-04-16T18:00:04.258Z,40.75
2023-04-16T18:02:06.052Z,38.53
2023-04-16T18:04:07.928Z,44.95
2023-04-16T18:06:09.574Z,31.38
2023-04-16T18:08:10.967Z,34.42
2023-04-16T18:10:12.365Z,33.05
2023-04-16T18:12:13.819Z,34.70
2023-04-16T18:14:15.436Z,27.60
2023-04-16T18:16:17.005Z,29.08
2023-04-16T18:18:18.536Z,27.65
2023-04-16T18:20:20.186Z,30.75
2023-04-16T18:22:21.580Z,27.75
2023-04-16T18:24:23.063Z,27.58
2023-04-16T18:26:25.356Z,31.95
2023-04-16T18:28:26.952Z,42.17
2023-04-16T18:30:28.396Z,35.42
2023-04-16T18:32:31.247Z,37.83
2023-04-16T18:34:32.914Z,47.70
2023-04-16T18:36:34.393Z,58.80
2023-04-16T18:38:41.424Z,44.00
2023-04-16T18:40:47.929Z,36.50
2023-04-16T18:42:49.413Z,33.10
2023-04-16T18:44:54.297Z,66.22
2023-04-16T18:46:55.833Z,40.92
2023-04-16T18:48:57.411Z,37.42
2023-04-16T18:50:59.045Z,51.53
2023-04-16T18:53:00.443Z,37.58
2023-04-16T18:55:02.152Z,32.83
2023-04-16T18:57:03.689Z,38.03
2023-04-16T18:59:05.090Z,37.60
2023-04-16T19:01:06.784Z,39.70
2023-04-16T19:03:08.343Z,38.00
2023-04-16T19:05:09.898Z,34.63
2023-04-16T19:07:11.403Z,31.90
2023-04-16T19:09:13.167Z,32.33
2023-04-16T19:11:14.705Z,28.40
2023-04-16T19:13:16.439Z,36.85
2023-04-16T19:15:18.050Z,28.92
2023-04-16T19:17:19.485Z,36.35
2023-04-16T19:19:21.094Z,36.15
2023-04-16T19:21:22.874Z,37.33
2023-04-16T19:23:24.258Z,36.75
2023-04-16T19:25:25.732Z,38.78
2023-04-16T19:27:29.047Z,33.30
2023-04-16T19:29:33.920Z,41.03
2023-04-16T19:31:35.580Z,57.35
2023-04-16T19:33:37.162Z,46.45
2023-04-16T19:35:38.588Z,45.00
2023-04-16T19:37:40.072Z,37.35
2023-04-16T19:39:41.548Z,38.20
2023-04-16T19:41:42.972Z,41.25
2023-04-16T19:43:44.469Z,50.97
2023-04-16T19:45:47.911Z,51.90
2023-04-16T19:47:49.318Z,41.53
2023-04-16T19:49:50.984Z,49.75
2023-04-16T19:51:52.456Z,44.25
2023-04-16T19:53:53.980Z,39.65
2023-04-16T19:55:57.258Z,32.05
2023-04-16T19:57:58.710Z,32.22
2023-04-16T20:00:00.396Z,31.75
2023-04-16T20:02:01.929Z,34.67
2023-04-16T20:04:03.390Z,34.95
2023-04-16T20:06:04.955Z,33.15
2023-04-16T20:08:06.516Z,31.17
2023-04-16T20:10:08.362Z,30.70
2023-04-16T20:12:09.784Z,32.22
2023-04-16T20:14:11.208Z,30.45
2023-04-16T20:16:12.851Z,31.20
2023-04-16T20:18:14.270Z,31.75
2023-04-16T20:20:15.736Z,37.78
2023-04-16T20:22:17.430Z,44.60
2023-04-16T20:24:18.878Z,43.05
2023-04-16T20:26:20.403Z,42.30
2023-04-16T20:28:22.015Z,34.70
2023-04-16T20:30:23.444Z,32.05
2023-04-16T20:32:26.610Z,41.53
2023-04-16T20:34:29.015Z,63.80
2023-04-16T20:36:30.455Z,207.23
2023-04-16T20:38:31.919Z,128.32
2023-04-16T20:40:33.442Z,107.13
2023-04-16T20:42:35.266Z,82.65
2023-04-16T20:44:38.090Z,61.65
2023-04-16T20:46:39.690Z,46.80
2023-04-16T20:48:41.126Z,75.32
2023-04-16T20:50:42.692Z,56.25
2023-04-16T20:52:44.587Z,77.13
2023-04-16T20:54:45.994Z,126.30
2023-04-16T20:56:47.462Z,159.43
2023-04-16T20:58:48.934Z,150.55
2023-04-16T21:00:51.664Z,94.00
2023-04-16T21:02:53.381Z,62.88
2023-04-16T21:04:55.076Z,54.60
2023-04-16T21:06:56.648Z,46.17
2023-04-16T21:08:58.130Z,39.58
2023-04-16T21:10:59.681Z,43.22
2023-04-16T21:13:01.116Z,48.30
2023-04-16T21:15:03.832Z,48.03
2023-04-16T21:17:05.418Z,50.15
2023-04-16T21:19:06.868Z,47.38
2023-04-16T21:21:08.388Z,59.75
2023-04-16T21:23:09.957Z,55.70
2023-04-16T21:25:11.414Z,46.20
2023-04-16T21:27:13.003Z,49.58
2023-04-16T21:29:14.718Z,39.78
2023-04-16T21:31:16.616Z,37.78
2023-04-16T21:33:18.365Z,42.97
2023-04-16T21:35:19.904Z,41.03
2023-04-16T21:37:21.305Z,39.75
2023-04-16T21:39:22.788Z,42.22
2023-04-16T21:41:24.215Z,39.20
2023-04-16T21:43:26.097Z,41.88
2023-04-16T21:45:28.445Z,45.60
2023-04-16T21:47:31.500Z,51.88
2023-04-16T21:49:32.938Z,55.15
2023-04-16T21:51:34.623Z,46.90
2023-04-16T21:53:36.114Z,53.85
2023-04-16T21:55:37.580Z,56.67
2023-04-16T21:57:39.960Z,50.17
2023-04-16T21:59:41.515Z,52.45
2023-04-16T22:01:42.959Z,50.75
2023-04-16T22:03:44.789Z,43.20
2023-04-16T22:05:46.522Z,53.97
2023-04-16T22:07:47.942Z,52.10
2023-04-16T22:09:49.713Z,41.28
2023-04-16T22:11:51.432Z,36.33
2023-04-16T22:13:52.821Z,42.55
2023-04-16T22:15:55.055Z,44.38
2023-04-16T22:17:56.795Z,43.08
2023-04-16T22:19:58.255Z,45.00
2023-04-16T22:21:59.642Z,39.08
2023-04-16T22:24:01.060Z,38.17
2023-04-16T22:26:02.475Z,42.78
2023-04-16T22:28:03.907Z,39.95
2023-04-16T22:30:07.352Z,49.95
2023-04-16T22:32:08.790Z,41.67
2023-04-16T22:34:10.354Z,38.95
2023-04-16T22:36:11.845Z,41.38
2023-04-16T22:38:13.267Z,35.75
2023-04-16T22:40:14.965Z,37.65
2023-04-16T22:42:16.601Z,35.63
2023-04-16T22:44:17.984Z,43.08
2023-04-16T22:46:19.655Z,37.25
2023-04-16T22:48:21.168Z,39.78
2023-04-16T22:50:22.557Z,43.10
2023-04-16T22:52:24.020Z,39.53
2023-04-16T22:54:31.268Z,40.17
2023-04-16T22:56:33.177Z,37.53
2023-04-16T22:58:34.815Z,43.72
2023-04-16T23:00:36.241Z,39.80
2023-04-16T23:02:37.712Z,38.70
2023-04-16T23:04:39.455Z,39.35
2023-04-16T23:06:40.947Z,37.75
2023-04-16T23:08:42.392Z,37.42
2023-04-16T23:10:44.065Z,46.67
2023-04-16T23:12:45.629Z,48.17
2023-04-16T23:14:47.054Z,50.38
2023-04-16T23:16:48.541Z,37.15
2023-04-16T23:18:50.217Z,42.92
2023-04-16T23:20:54.431Z,47.13
2023-04-16T23:22:55.851Z,43.85
2023-04-16T23:24:57.420Z,40.03
2023-04-16T23:26:58.846Z,36.25
2023-04-16T23:29:00.281Z,44.63
2023-04-16T23:31:01.798Z,35.63
2023-04-16T23:33:03.401Z,35.90
2023-04-16T23:35:05.340Z,39.53
2023-04-16T23:37:06.919Z,41.72
2023-04-16T23:39:08.354Z,38.83
2023-04-16T23:41:10.116Z,38.85
2023-04-16T23:43:11.676Z,34.75
2023-04-16T23:45:13.089Z,36.97
2023-04-16T23:47:14.608Z,35.40
2023-04-16T23:49:16.126Z,40.13
2023-04-16T23:51:17.565Z,37.40
2023-04-16T23:53:19.238Z,36.53
2023-04-16T23:55:20.874Z,34.75
2023-04-16T23:57:22.296Z,36.40
2023-04-16T23:59:23.936Z,32.65
